<?xml version='1.0' encoding='UTF-8'?>
<gpx xmlns="http://www.topografix.com/GPX/1/1" creator="www.balnam.be" version="1.1" xmlns:xsi="http://www.w3.org/2001/XMLSchema-instance" xsi:schemaLocation="http://www.topografix.com/GPX/1/1 http://www.topografix.com/GPX/1/1/gpx.xsd">
<trk>
<name>nslhr1</name>
<cmt>v</cmt>
<desc>Heure Chemin n°1 Chemin de Somme-Leuze à Sinsin</desc>
<link href="https://chemins.be/heure/chemin/1"/><trkseg>
<trkpt lat="50.314685" lon="5.322285"><time>2026-05-06T16:10:00Z</time></trkpt>
<trkpt lat="50.311293" lon="5.314874"><time>2026-05-06T16:20:00Z</time></trkpt>
</trkseg></trk>
<trk>
<name>nslhr1</name>
<cmt>r</cmt>
<desc>Heure Chemin n°1 Chemin de Somme-Leuze à Sinsin</desc>
<link href="https://chemins.be/heure/chemin/1"/><trkseg>
<trkpt lat="50.311293" lon="5.314874"><time>2026-05-06T16:20:00Z</time></trkpt>
<trkpt lat="50.310425" lon="5.314407"><time>2026-05-06T16:30:00Z</time></trkpt>
<trkpt lat="50.309051" lon="5.313173"><time>2026-05-06T16:40:00Z</time></trkpt>
<trkpt lat="50.308297" lon="5.311894"><time>2026-05-06T16:50:00Z</time></trkpt>
<trkpt lat="50.307916" lon="5.311142"><time>2026-05-06T17:00:00Z</time></trkpt>
<trkpt lat="50.307624" lon="5.309508"><time>2026-05-06T17:10:00Z</time></trkpt>
<trkpt lat="50.306793" lon="5.308874"><time>2026-05-06T17:20:00Z</time></trkpt>
<trkpt lat="50.306001" lon="5.307791"><time>2026-05-06T17:30:00Z</time></trkpt>
<trkpt lat="50.305345" lon="5.306697"><time>2026-05-06T17:40:00Z</time></trkpt>
<trkpt lat="50.304954" lon="5.306142"><time>2026-05-06T17:50:00Z</time></trkpt>
<trkpt lat="50.302535" lon="5.303989"><time>2026-05-06T18:00:00Z</time></trkpt>
<trkpt lat="50.301815" lon="5.302908"><time>2026-05-06T18:10:00Z</time></trkpt>
<trkpt lat="50.300756" lon="5.302606"><time>2026-05-06T18:20:00Z</time></trkpt>
<trkpt lat="50.298228" lon="5.300619"><time>2026-05-06T18:30:00Z</time></trkpt>
<trkpt lat="50.297287" lon="5.299113"><time>2026-05-06T18:40:00Z</time></trkpt>
<trkpt lat="50.297230" lon="5.297217"><time>2026-05-06T18:50:00Z</time></trkpt>
<trkpt lat="50.295879" lon="5.294201"><time>2026-05-06T19:00:00Z</time></trkpt>
<trkpt lat="50.294845" lon="5.295247"><time>2026-05-06T19:10:00Z</time></trkpt>
<trkpt lat="50.294188" lon="5.296484"><time>2026-05-06T19:20:00Z</time></trkpt>
<trkpt lat="50.293824" lon="5.297066"><time>2026-05-06T19:30:00Z</time></trkpt>
<trkpt lat="50.293781" lon="5.297893"><time>2026-05-06T19:40:00Z</time></trkpt>
<trkpt lat="50.292876" lon="5.298634"><time>2026-05-06T19:50:00Z</time></trkpt>
<trkpt lat="50.289585" lon="5.296492"><time>2026-05-06T20:00:00Z</time></trkpt>
<trkpt lat="50.288552" lon="5.295237"><time>2026-05-06T20:10:00Z</time></trkpt>
<trkpt lat="50.286802" lon="5.293701"><time>2026-05-06T20:20:00Z</time></trkpt>
<trkpt lat="50.284532" lon="5.290809"><time>2026-05-06T20:30:00Z</time></trkpt>
<trkpt lat="50.283896" lon="5.289421"><time>2026-05-06T20:40:00Z</time></trkpt>
</trkseg></trk>
<trk>
<name>nslhr1</name>
<cmt>s</cmt>
<desc>Heure Chemin n°1 Chemin de Somme-Leuze à Sinsin</desc>
<link href="https://chemins.be/heure/chemin/1"/><trkseg>
<trkpt lat="50.283896" lon="5.289421"><time>2026-05-06T20:40:00Z</time></trkpt>
<trkpt lat="50.283382" lon="5.287264"><time>2026-05-06T20:50:00Z</time></trkpt>
</trkseg>
</trk>
</gpx>